createdAt,value
2022-08-12T00:00:12.586Z,90.90
2022-08-12T00:03:00.238Z,90.80
2022-08-12T00:06:04.882Z,90.80
2022-08-12T00:08:52.513Z,90.70
2022-08-12T00:11:40.689Z,90.70
2022-08-12T00:14:28.350Z,90.70
2022-08-12T00:17:16.001Z,90.60
2022-08-12T00:20:03.261Z,90.50
2022-08-12T00:22:58.825Z,90.50
2022-08-12T00:26:21.159Z,90.50
2022-08-12T00:29:13.777Z,90.40
2022-08-12T00:32:02.058Z,90.30
2022-08-12T00:34:51.993Z,90.30
2022-08-12T00:37:41.960Z,90.20
2022-08-12T00:40:32.131Z,90.10
2022-08-12T00:43:02.192Z,90.10
2022-08-12T00:45:51.667Z,90.00
2022-08-12T00:48:21.884Z,90.00
2022-08-12T00:50:56.892Z,89.90
2022-08-12T00:53:30.002Z,89.80
2022-08-12T00:56:01.254Z,89.60
2022-08-12T00:58:32.453Z,89.40
2022-08-12T01:01:05.410Z,90.10
2022-08-12T01:03:55.550Z,89.00
2022-08-12T01:06:51.064Z,89.00
2022-08-12T01:09:42.278Z,88.80
2022-08-12T01:12:12.658Z,89.00
2022-08-12T01:14:44.596Z,88.70
2022-08-12T01:17:14.410Z,88.70
2022-08-12T01:19:44.276Z,88.80
2022-08-12T01:22:36.450Z,88.30
2022-08-12T01:25:21.171Z,88.10
2022-08-12T01:27:54.363Z,88.10
2022-08-12T01:30:27.523Z,88.20
2022-08-12T01:33:00.488Z,88.10
2022-08-12T01:35:31.997Z,87.70
2022-08-12T01:38:09.919Z,87.10
2022-08-12T01:40:46.828Z,87.40
2022-08-12T01:43:25.905Z,87.40
2022-08-12T01:46:03.198Z,87.40
2022-08-12T01:49:01.593Z,87.30
2022-08-12T01:52:15.142Z,87.00
2022-08-12T01:54:41.353Z,86.80
2022-08-12T01:57:59.518Z,86.80
2022-08-12T02:00:18.468Z,86.10
2022-08-12T02:02:59.234Z,86.60
2022-08-12T02:06:11.157Z,86.50
2022-08-12T02:09:22.856Z,85.70
2022-08-12T02:12:05.371Z,85.50
2022-08-12T02:14:57.988Z,85.40
2022-08-12T02:18:00.945Z,86.10
2022-08-12T02:20:51.518Z,86.20
2022-08-12T02:23:27.926Z,86.30
2022-08-12T02:26:11.370Z,86.40
2022-08-12T02:28:41.085Z,85.10
2022-08-12T02:31:12.261Z,85.70
2022-08-12T02:33:42.804Z,85.10
2022-08-12T02:36:12.387Z,84.80
2022-08-12T02:38:45.139Z,84.20
2022-08-12T02:41:18.062Z,85.10
2022-08-12T02:43:52.879Z,84.40
2022-08-12T02:46:29.864Z,83.80
2022-08-12T02:49:37.211Z,83.40
2022-08-12T02:52:08.828Z,82.70
2022-08-12T02:54:40.219Z,83.50
2022-08-12T02:57:09.417Z,84.10
2022-08-12T02:59:38.960Z,84.00
2022-08-12T03:02:14.255Z,83.80
2022-08-12T03:04:49.348Z,82.60
2022-08-12T03:07:30.995Z,82.20
2022-08-12T03:10:26.014Z,82.40
2022-08-12T03:13:09.286Z,81.50
2022-08-12T03:15:38.925Z,82.00
2022-08-12T03:18:34.763Z,82.10
2022-08-12T03:21:05.186Z,79.20
2022-08-12T03:23:34.738Z,81.00
2022-08-12T03:26:05.050Z,80.60
2022-08-12T03:28:52.529Z,82.10
2022-08-12T03:31:34.820Z,82.60
2022-08-12T03:34:10.136Z,80.50
2022-08-12T03:36:41.842Z,81.30
2022-08-12T03:39:19.678Z,81.40
2022-08-12T03:42:17.088Z,80.80
2022-08-12T03:45:29.293Z,80.40
2022-08-12T03:48:18.750Z,80.00
2022-08-12T03:51:08.026Z,80.70
2022-08-12T03:53:56.255Z,81.10
2022-08-12T03:56:43.768Z,81.70
2022-08-12T03:59:31.490Z,80.90
2022-08-12T04:02:01.440Z,81.60
2022-08-12T04:04:37.324Z,81.00
2022-08-12T04:07:11.895Z,81.00
2022-08-12T04:09:43.747Z,79.40
2022-08-12T04:12:33.301Z,81.10
2022-08-12T04:15:04.147Z,80.90
2022-08-12T04:17:35.062Z,81.10
2022-08-12T04:20:05.091Z,81.20
2022-08-12T04:22:35.265Z,81.40
2022-08-12T04:25:05.372Z,81.40
2022-08-12T04:27:36.934Z,81.70
2022-08-12T04:30:31.277Z,81.20
2022-08-12T04:32:59.327Z,81.40
2022-08-12T04:35:29.399Z,80.90
2022-08-12T04:38:01.155Z,81.10
2022-08-12T04:40:35.041Z,81.50
2022-08-12T04:43:04.054Z,81.50
2022-08-12T04:45:35.768Z,79.10
2022-08-12T04:48:07.828Z,80.90
2022-08-12T04:50:37.500Z,80.90
2022-08-12T04:53:09.282Z,81.20
2022-08-12T04:55:43.875Z,81.70
2022-08-12T04:58:15.126Z,81.80
2022-08-12T05:00:58.517Z,82.00
2022-08-12T05:03:28.915Z,81.40
2022-08-12T05:06:18.920Z,81.70
2022-08-12T05:09:02.677Z,81.80
2022-08-12T05:11:53.768Z,81.90
2022-08-12T05:14:25.113Z,81.40
2022-08-12T05:16:54.605Z,81.40
2022-08-12T05:19:23.772Z,81.50
2022-08-12T05:21:53.612Z,81.70
2022-08-12T05:24:23.017Z,81.70
2022-08-12T05:26:53.557Z,81.60
2022-08-12T05:30:07.678Z,81.50
2022-08-12T05:32:12.686Z,81.30
2022-08-12T05:34:41.853Z,81.30
2022-08-12T05:37:11.113Z,81.40
2022-08-12T05:39:40.360Z,81.60
2022-08-12T05:42:12.848Z,81.90
2022-08-12T05:44:42.106Z,81.80
2022-08-12T05:47:13.509Z,82.10
2022-08-12T05:49:43.190Z,82.10
2022-08-12T05:52:12.623Z,82.30
2022-08-12T05:54:57.030Z,82.60
2022-08-12T05:57:27.043Z,82.50
2022-08-12T05:59:56.370Z,82.50
2022-08-12T06:02:27.415Z,82.80
2022-08-12T06:04:58.863Z,82.50
2022-08-12T06:07:59.777Z,82.70
2022-08-12T06:10:31.607Z,82.80
2022-08-12T06:13:03.288Z,82.50
2022-08-12T06:15:33.348Z,82.00
2022-08-12T06:18:14.131Z,82.50
2022-08-12T06:20:52.595Z,82.50
2022-08-12T06:23:23.401Z,82.40
2022-08-12T06:25:52.847Z,82.30
2022-08-12T06:28:22.340Z,82.00
2022-08-12T06:33:59.527Z,81.80
2022-08-12T06:36:34.836Z,81.30
2022-08-12T06:39:04.156Z,81.00
2022-08-12T06:42:32.550Z,81.20
2022-08-12T06:45:02.156Z,80.70
2022-08-12T06:47:33.773Z,80.60
2022-08-12T06:50:04.642Z,81.00
2022-08-12T06:52:34.547Z,80.60
2022-08-12T06:55:03.622Z,80.80
2022-08-12T06:58:01.759Z,81.00
2022-08-12T07:00:32.588Z,80.70
2022-08-12T07:03:16.566Z,80.30
2022-08-12T07:05:52.258Z,80.70
2022-08-12T07:08:21.687Z,80.50
2022-08-12T07:11:00.158Z,80.30
2022-08-12T07:14:02.418Z,80.10
2022-08-12T07:16:53.264Z,80.40
2022-08-12T07:19:22.901Z,80.40
2022-08-12T07:22:01.824Z,80.40
2022-08-12T07:24:32.295Z,80.60
2022-08-12T07:27:01.482Z,80.20
2022-08-12T07:30:00.013Z,80.30
2022-08-12T07:32:21.177Z,80.60
2022-08-12T07:34:50.877Z,80.70
2022-08-12T07:37:19.936Z,80.90
2022-08-12T07:39:50.855Z,80.90
2022-08-12T07:42:30.645Z,80.90
2022-08-12T07:45:00.619Z,80.70
2022-08-12T07:47:30.031Z,80.60
2022-08-12T07:50:04.910Z,80.40
2022-08-12T07:52:37.166Z,80.10
2022-08-12T07:55:07.615Z,80.10
2022-08-12T07:57:49.543Z,80.50
2022-08-12T08:00:19.469Z,80.70
2022-08-12T08:02:50.352Z,80.60
2022-08-12T08:05:20.595Z,81.00
2022-08-12T08:07:50.082Z,81.00
2022-08-12T08:10:19.558Z,81.20
2022-08-12T08:12:59.900Z,81.00
2022-08-12T08:16:01.838Z,81.00
2022-08-12T08:18:26.248Z,81.00
2022-08-12T08:20:58.057Z,81.10
2022-08-12T08:23:56.404Z,81.20
2022-08-12T08:26:28.041Z,80.90
2022-08-12T08:28:57.901Z,80.80
2022-08-12T08:31:27.370Z,81.00
2022-08-12T08:34:09.460Z,80.80
2022-08-12T08:36:44.806Z,80.80
2022-08-12T08:39:21.819Z,81.00
2022-08-12T08:42:17.838Z,80.80
2022-08-12T08:44:58.078Z,80.60
2022-08-12T08:47:28.634Z,80.70
2022-08-12T08:50:02.142Z,80.90
2022-08-12T08:52:39.037Z,81.10
2022-08-12T08:55:20.956Z,81.00
2022-08-12T08:57:56.497Z,81.10
2022-08-12T09:00:26.583Z,81.20
2022-08-12T09:02:58.617Z,81.30
2022-08-12T09:05:43.142Z,81.60
2022-08-12T09:08:23.205Z,81.70
2022-08-12T09:12:06.709Z,81.90
2022-08-12T09:14:10.554Z,81.90
2022-08-12T09:16:42.883Z,82.20
2022-08-12T09:19:27.562Z,82.20
2022-08-12T09:24:53.785Z,82.20
2022-08-12T09:27:57.703Z,82.30
2022-08-12T09:30:17.092Z,82.30
2022-08-12T09:33:05.035Z,82.20
2022-08-12T09:36:03.338Z,82.10
2022-08-12T09:38:35.508Z,82.10
2022-08-12T09:42:34.990Z,81.90
2022-08-12T09:44:38.356Z,82.00
2022-08-12T09:47:03.240Z,82.10
2022-08-12T09:49:42.474Z,82.00
2022-08-12T09:52:16.688Z,81.90
2022-08-12T09:54:50.158Z,81.90
2022-08-12T09:58:07.419Z,82.00
2022-08-12T10:00:23.291Z,81.80
2022-08-12T10:03:31.831Z,81.80
2022-08-12T10:06:27.357Z,81.60
2022-08-12T10:08:53.500Z,81.80
2022-08-12T10:12:07.800Z,81.90
2022-08-12T10:14:34.267Z,81.80
2022-08-12T10:17:08.678Z,81.70
2022-08-12T10:19:41.267Z,82.50
2022-08-12T10:22:40.315Z,81.80
2022-08-12T10:26:38.185Z,81.80
2022-08-12T10:28:40.415Z,81.90
2022-08-12T10:31:16.557Z,81.90
2022-08-12T10:33:55.577Z,82.00
2022-08-12T10:36:43.129Z,82.00
2022-08-12T10:40:05.628Z,82.20
2022-08-12T10:42:35.156Z,82.10
2022-08-12T10:45:08.181Z,82.10
2022-08-12T10:48:07.145Z,82.10
2022-08-12T10:50:58.410Z,82.10
2022-08-12T10:53:21.473Z,82.20
2022-08-12T10:56:12.613Z,82.30
2022-08-12T10:58:46.212Z,82.30
2022-08-12T11:01:49.574Z,82.50
2022-08-12T11:04:25.349Z,82.50
2022-08-12T11:07:07.910Z,82.50
2022-08-12T11:09:55.835Z,82.50
2022-08-12T11:12:55.865Z,82.90
2022-08-12T11:16:02.537Z,83.00
2022-08-12T11:18:18.271Z,83.10
2022-08-12T11:20:50.567Z,83.20
2022-08-12T11:23:35.966Z,83.30
2022-08-12T11:26:08.494Z,83.40
2022-08-12T11:28:38.940Z,84.30
2022-08-12T11:31:14.414Z,83.70
2022-08-12T11:34:05.906Z,83.60
2022-08-12T11:36:34.605Z,83.70
2022-08-12T11:39:11.348Z,83.80
2022-08-12T11:41:43.022Z,83.90
2022-08-12T11:44:37.132Z,83.90
2022-08-12T11:47:01.964Z,83.90
2022-08-12T11:49:32.781Z,84.00
2022-08-12T11:52:28.014Z,84.10
2022-08-12T11:54:55.768Z,84.20
2022-08-12T11:58:09.153Z,85.10
2022-08-12T12:03:04.603Z,84.40
2022-08-12T12:05:39.736Z,84.50
2022-08-12T12:08:38.743Z,84.60
2022-08-12T12:11:00.729Z,84.70
2022-08-12T12:14:07.709Z,84.80
2022-08-12T12:16:19.539Z,84.80
2022-08-12T12:18:49.109Z,84.90
2022-08-12T12:21:18.526Z,85.00
2022-08-12T12:24:08.266Z,85.00
2022-08-12T12:26:38.388Z,85.10
2022-08-12T12:30:05.723Z,85.10
2022-08-12T12:32:10.281Z,85.30
2022-08-12T12:35:14.591Z,85.40
2022-08-12T12:38:03.718Z,85.50
2022-08-12T12:40:20.145Z,85.60
2022-08-12T12:42:55.329Z,85.70
2022-08-12T12:45:33.199Z,85.80
2022-08-12T12:48:08.732Z,85.80
2022-08-12T12:50:51.249Z,85.90
2022-08-12T12:54:06.263Z,85.90
2022-08-12T12:56:34.044Z,86.20
2022-08-12T12:59:07.083Z,86.10
2022-08-12T13:01:56.424Z,86.20
2022-08-12T13:04:25.993Z,86.30
2022-08-12T13:06:56.360Z,86.40
2022-08-12T13:09:25.358Z,86.50
2022-08-12T13:11:56.352Z,86.50
2022-08-12T13:14:31.052Z,86.60
2022-08-12T13:17:06.105Z,86.70
2022-08-12T13:19:46.690Z,86.80
2022-08-12T13:22:21.294Z,86.80
2022-08-12T13:24:57.066Z,86.90
2022-08-12T13:27:36.407Z,86.90
2022-08-12T13:30:11.804Z,87.00
2022-08-12T13:32:57.109Z,87.10
2022-08-12T13:36:03.361Z,87.20
2022-08-12T13:38:34.642Z,87.20
2022-08-12T13:41:11.654Z,87.20
2022-08-12T13:43:41.895Z,87.20
2022-08-12T13:46:15.404Z,87.10
2022-08-12T13:48:45.732Z,87.10
2022-08-12T13:51:24.516Z,87.10
2022-08-12T13:53:57.624Z,87.10
2022-08-12T13:56:34.902Z,87.40
2022-08-12T13:59:11.569Z,87.40
2022-08-12T14:01:42.393Z,87.40
2022-08-12T14:04:12.591Z,87.30
2022-08-12T14:06:44.866Z,87.30
2022-08-12T14:09:17.810Z,87.40
2022-08-12T14:11:58.851Z,87.50
2022-08-12T14:14:34.733Z,87.60
2022-08-12T14:17:10.894Z,87.90
2022-08-12T14:20:01.282Z,88.00
2022-08-12T14:22:31.635Z,88.30
2022-08-12T14:25:02.487Z,88.30
2022-08-12T14:28:06.127Z,88.60
2022-08-12T14:30:28.858Z,88.80
2022-08-12T14:32:59.619Z,88.60
2022-08-12T14:35:29.204Z,89.00
2022-08-12T14:38:17.372Z,88.80
2022-08-12T14:40:53.601Z,89.40
2022-08-12T14:43:25.733Z,89.50
2022-08-12T14:46:05.074Z,89.40
2022-08-12T14:48:35.147Z,89.90
2022-08-12T14:52:43.944Z,90.00
2022-08-12T14:54:55.945Z,90.10
2022-08-12T14:59:56.665Z,90.20
2022-08-12T15:02:30.697Z,90.10
2022-08-12T15:05:04.012Z,90.20
2022-08-12T15:07:49.952Z,90.20
2022-08-12T15:10:32.029Z,90.40
2022-08-12T15:13:08.257Z,90.40
2022-08-12T15:15:45.822Z,90.40
2022-08-12T15:18:22.796Z,90.50
2022-08-12T15:20:56.586Z,90.70
2022-08-12T15:23:29.037Z,90.60
2022-08-12T15:26:04.914Z,90.70
2022-08-12T15:28:36.551Z,90.60
2022-08-12T15:31:21.604Z,90.60
2022-08-12T15:33:58.218Z,90.70
2022-08-12T15:36:54.849Z,90.60
2022-08-12T15:39:17.756Z,90.70
2022-08-12T15:41:49.165Z,90.80
2022-08-12T15:44:41.926Z,90.80
2022-08-12T15:47:09.595Z,90.90
2022-08-12T15:49:54.269Z,91.20
2022-08-12T15:52:28.554Z,90.90
2022-08-12T15:55:06.560Z,90.90
2022-08-12T15:57:55.197Z,91.00
2022-08-12T16:00:34.233Z,91.00
2022-08-12T16:03:14.363Z,91.10
2022-08-12T16:06:13.068Z,91.00
2022-08-12T16:08:46.352Z,91.10
2022-08-12T16:11:16.240Z,91.20
2022-08-12T16:13:49.208Z,91.10
2022-08-12T16:16:24.400Z,91.10
2022-08-12T16:19:04.521Z,91.10
2022-08-12T16:21:52.560Z,91.10
2022-08-12T16:24:27.577Z,91.30
2022-08-12T16:26:56.950Z,91.30
2022-08-12T16:29:38.578Z,91.30
2022-08-12T16:32:31.679Z,91.70
2022-08-12T16:35:02.539Z,91.40
2022-08-12T16:38:24.506Z,91.40
2022-08-12T16:40:24.834Z,91.50
2022-08-12T16:43:02.124Z,91.60
2022-08-12T16:46:32.593Z,91.60
2022-08-12T16:49:13.692Z,91.90
2022-08-12T16:51:47.176Z,91.80
2022-08-12T16:54:19.485Z,91.70
2022-08-12T16:56:54.562Z,91.80
2022-08-12T16:59:24.345Z,91.80
2022-08-12T17:02:11.268Z,91.70
2022-08-12T17:05:18.132Z,91.70
2022-08-12T17:08:08.495Z,91.80
2022-08-12T17:10:57.257Z,91.80
2022-08-12T17:13:53.624Z,91.90
2022-08-12T17:16:41.478Z,91.90
2022-08-12T17:20:30.371Z,91.90
2022-08-12T17:22:37.067Z,91.90
2022-08-12T17:25:14.805Z,91.90
2022-08-12T17:27:57.033Z,92.00
2022-08-12T17:30:28.740Z,91.90
2022-08-12T17:33:06.921Z,92.00
2022-08-12T17:35:43.331Z,92.00
2022-08-12T17:38:22.086Z,92.10
2022-08-12T17:40:53.068Z,92.10
2022-08-12T17:43:54.796Z,92.90
2022-08-12T17:46:12.988Z,92.30
2022-08-12T17:48:55.613Z,92.30
2022-08-12T17:51:31.478Z,92.20
2022-08-12T17:54:05.682Z,93.10
2022-08-12T17:56:42.977Z,92.50
2022-08-12T17:59:13.504Z,92.40
2022-08-12T18:01:55.037Z,92.40
2022-08-12T18:04:35.776Z,92.40
2022-08-12T18:07:08.337Z,92.40
2022-08-12T18:09:39.167Z,92.40
2022-08-12T18:12:33.085Z,92.40
2022-08-12T18:15:08.984Z,92.40
2022-08-12T18:17:40.534Z,92.50
2022-08-12T18:20:15.777Z,92.50
2022-08-12T18:22:47.687Z,92.50
2022-08-12T18:26:15.052Z,92.60
2022-08-12T18:28:29.333Z,92.50
2022-08-12T18:31:03.419Z,92.60
2022-08-12T18:33:43.866Z,92.60
2022-08-12T18:36:22.503Z,92.50
2022-08-12T18:38:59.546Z,92.60
2022-08-12T18:41:34.213Z,92.60
2022-08-12T18:44:12.159Z,92.50
2022-08-12T18:46:56.230Z,92.60
2022-08-12T18:49:34.944Z,92.50
2022-08-12T18:52:11.583Z,92.60
2022-08-12T18:54:52.904Z,92.50
2022-08-12T18:57:45.976Z,92.60
2022-08-12T19:00:22.047Z,92.50
2022-08-12T19:02:54.011Z,92.60
2022-08-12T19:05:52.707Z,92.50
2022-08-12T19:08:16.623Z,92.50
2022-08-12T19:10:50.690Z,92.60
2022-08-12T19:13:40.523Z,92.50
2022-08-12T19:16:13.584Z,92.50
2022-08-12T19:18:45.047Z,92.60
2022-08-12T19:21:16.596Z,92.60
2022-08-12T19:24:06.243Z,92.50
2022-08-12T19:26:37.381Z,92.50
2022-08-12T19:29:08.867Z,92.50
2022-08-12T19:31:57.511Z,92.50
2022-08-12T19:38:06.422Z,92.60
2022-08-12T19:40:33.539Z,92.70
2022-08-12T19:43:22.965Z,92.80
2022-08-12T19:45:56.711Z,92.90
2022-08-12T19:48:32.757Z,92.80
2022-08-12T19:51:09.172Z,92.70
2022-08-12T19:53:57.421Z,92.70
2022-08-12T19:56:29.347Z,92.70
2022-08-12T19:59:20.699Z,92.60
2022-08-12T20:02:02.443Z,92.50
2022-08-12T20:04:41.041Z,92.60
2022-08-12T20:07:23.082Z,92.50
2022-08-12T20:09:55.309Z,92.50
2022-08-12T20:12:32.536Z,92.60
2022-08-12T20:15:06.019Z,92.50
2022-08-12T20:17:36.413Z,92.40
2022-08-12T20:20:27.779Z,92.50
2022-08-12T20:22:58.261Z,92.40
2022-08-12T20:25:28.161Z,92.40
2022-08-12T20:28:16.476Z,92.40
2022-08-12T20:30:53.102Z,92.40
2022-08-12T20:33:32.731Z,92.40
2022-08-12T20:36:40.807Z,92.40
2022-08-12T20:39:17.511Z,92.40
2022-08-12T20:41:59.819Z,92.40
2022-08-12T20:44:29.778Z,92.50
2022-08-12T20:47:18.089Z,92.40
2022-08-12T20:49:56.010Z,92.50
2022-08-12T20:52:34.071Z,92.50
2022-08-12T20:55:03.836Z,92.40
2022-08-12T20:57:37.615Z,92.40
2022-08-12T21:00:17.227Z,92.40
2022-08-12T21:02:50.054Z,92.40
2022-08-12T21:06:10.380Z,92.50
2022-08-12T21:08:27.460Z,92.50
2022-08-12T21:10:58.914Z,92.50
2022-08-12T21:13:38.933Z,92.40
2022-08-12T21:16:10.028Z,92.40
2022-08-12T21:18:39.466Z,92.40
2022-08-12T21:21:23.599Z,92.40
2022-08-12T21:23:56.481Z,92.40
2022-08-12T21:26:30.936Z,92.40
2022-08-12T21:29:04.113Z,92.40
2022-08-12T21:32:39.209Z,92.50
2022-08-12T21:34:29.644Z,92.50
2022-08-12T21:37:26.831Z,92.50
2022-08-12T21:39:56.524Z,92.50
2022-08-12T21:42:27.782Z,92.50
2022-08-12T21:45:47.857Z,92.50
2022-08-12T21:47:46.642Z,92.50
2022-08-12T21:50:22.517Z,92.50
2022-08-12T21:52:58.765Z,92.60
2022-08-12T21:55:40.704Z,92.60
2022-08-12T21:58:22.085Z,92.50
2022-08-12T22:00:53.088Z,92.50
2022-08-12T22:04:04.358Z,92.50
2022-08-12T22:06:42.865Z,92.60
2022-08-12T22:09:15.769Z,92.60
2022-08-12T22:11:56.435Z,92.60
2022-08-12T22:14:31.461Z,92.60
2022-08-12T22:17:05.167Z,92.70
2022-08-12T22:19:35.739Z,92.70
2022-08-12T22:22:06.302Z,92.70
2022-08-12T22:24:36.227Z,92.70
2022-08-12T22:27:31.242Z,92.70
2022-08-12T22:30:19.628Z,92.70
2022-08-12T22:32:51.310Z,92.80
2022-08-12T22:35:55.783Z,92.70
2022-08-12T22:38:29.341Z,92.80
2022-08-12T22:41:08.017Z,92.90
2022-08-12T22:43:59.770Z,92.80
2022-08-12T22:46:52.873Z,92.80
2022-08-12T22:49:49.108Z,92.80
2022-08-12T22:52:23.837Z,92.80
2022-08-12T22:55:02.758Z,92.80
2022-08-12T22:57:49.162Z,92.90
2022-08-12T23:00:27.815Z,92.90
2022-08-12T23:03:03.469Z,92.90
2022-08-12T23:05:57.074Z,92.90
2022-08-12T23:08:30.217Z,92.90
2022-08-12T23:11:05.933Z,93.00
2022-08-12T23:14:01.791Z,92.90
2022-08-12T23:16:34.431Z,93.00
2022-08-12T23:19:22.783Z,93.10
2022-08-12T23:22:37.024Z,93.10
2022-08-12T23:24:57.208Z,93.10
2022-08-12T23:27:52.148Z,93.10
2022-08-12T23:30:31.636Z,93.20
2022-08-12T23:33:13.078Z,93.20
2022-08-12T23:35:45.576Z,93.20
2022-08-12T23:38:31.032Z,93.20
2022-08-12T23:41:03.936Z,93.30
2022-08-12T23:43:42.920Z,93.20
2022-08-12T23:46:20.037Z,93.20
2022-08-12T23:48:50.524Z,93.30
2022-08-12T23:51:32.170Z,93.30
2022-08-12T23:54:08.309Z,93.30
2022-08-12T23:56:40.127Z,93.30
2022-08-12T23:59:14.091Z,93.30
